Ardmore, Missouri
Current Conditions -  °F | °C
As of 8:55 PM on Saturday 22 Nov 2014 (Local Time) from KIRK Reporting Station
Few Clouds Few Clouds  
Wind Chill: 52°   Ceiling: Unl
Heat Index: 52°   Visibility: 10mi
Dew Point: 50°   Wind: 13mph
Humidity: 93%   Direction: 170°S
Pressure: 29.77"   Gusts: NA
Location:  39.6493°N, 92.4492°W
Report Text: KIRK 230255Z AUTO 17011KT 10SM FEW011 FEW018 11/10 A2977 RMK AO2 SLP083 T01110100 58014
Loading
Personal Weather Stations






























Interactive Weather Map New forecast layout! Learn more

10-Day Weather Forecast

Advertisements
Track Severe Weather on mobile